sensor_id;sensor_type;location;lat;lon;timestamp;pressure;altitude;pressure_sealevel;temperature;humidity
47536;BME280;33278;50.826;9.030;2022-08-07T00:00:07;99560.75;;;20.55;40.69
47536;BME280;33278;50.826;9.030;2022-08-07T00:02:37;99561.63;;;20.51;40.84
47536;BME280;33278;50.826;9.030;2022-08-07T00:05:08;99556.78;;;20.48;40.83
47536;BME280;33278;50.826;9.030;2022-08-07T00:07:38;99552.25;;;20.43;40.94
47536;BME280;33278;50.826;9.030;2022-08-07T00:10:09;99556.66;;;20.39;41.26
47536;BME280;33278;50.826;9.030;2022-08-07T00:12:39;99553.66;;;20.40;40.85
47536;BME280;33278;50.826;9.030;2022-08-07T00:15:10;99554.47;;;20.41;40.96
47536;BME280;33278;50.826;9.030;2022-08-07T00:17:40;99551.97;;;20.45;41.00
47536;BME280;33278;50.826;9.030;2022-08-07T00:20:10;99546.34;;;20.41;41.67
47536;BME280;33278;50.826;9.030;2022-08-07T00:22:41;99552.03;;;20.39;40.97
47536;BME280;33278;50.826;9.030;2022-08-07T00:25:11;99546.72;;;20.34;41.22
47536;BME280;33278;50.826;9.030;2022-08-07T00:27:41;99551.34;;;20.34;41.03
47536;BME280;33278;50.826;9.030;2022-08-07T00:30:12;99550.31;;;20.30;41.06
47536;BME280;33278;50.826;9.030;2022-08-07T00:32:42;99549.28;;;20.26;40.88
47536;BME280;33278;50.826;9.030;2022-08-07T00:35:12;99541.44;;;20.24;40.98
47536;BME280;33278;50.826;9.030;2022-08-07T00:37:43;99539.03;;;20.22;41.09
47536;BME280;33278;50.826;9.030;2022-08-07T00:40:14;99541.00;;;20.17;41.42
47536;BME280;33278;50.826;9.030;2022-08-07T00:42:44;99535.91;;;20.15;41.39
47536;BME280;33278;50.826;9.030;2022-08-07T00:45:14;99526.38;;;20.18;41.37
47536;BME280;33278;50.826;9.030;2022-08-07T00:47:45;99536.19;;;20.14;41.31
47536;BME280;33278;50.826;9.030;2022-08-07T00:50:16;99527.44;;;20.22;42.01
47536;BME280;33278;50.826;9.030;2022-08-07T00:52:46;99516.88;;;20.20;41.06
47536;BME280;33278;50.826;9.030;2022-08-07T00:55:17;99515.78;;;20.21;41.13
47536;BME280;33278;50.826;9.030;2022-08-07T00:57:47;99524.50;;;20.18;40.89
47536;BME280;33278;50.826;9.030;2022-08-07T01:00:18;99527.78;;;20.15;40.98
47536;BME280;33278;50.826;9.030;2022-08-07T01:02:49;99523.47;;;20.14;41.26
47536;BME280;33278;50.826;9.030;2022-08-07T01:05:20;99517.19;;;20.19;41.52
47536;BME280;33278;50.826;9.030;2022-08-07T01:07:51;99518.56;;;20.16;40.58
47536;BME280;33278;50.826;9.030;2022-08-07T01:10:22;99512.72;;;20.09;40.84
47536;BME280;33278;50.826;9.030;2022-08-07T01:12:52;99513.81;;;20.08;41.46
47536;BME280;33278;50.826;9.030;2022-08-07T01:15:23;99511.41;;;20.06;40.81
47536;BME280;33278;50.826;9.030;2022-08-07T01:17:54;99513.59;;;20.04;40.87
47536;BME280;33278;50.826;9.030;2022-08-07T01:20:30;99511.69;;;20.05;41.11
47536;BME280;33278;50.826;9.030;2022-08-07T01:23:01;99509.28;;;20.03;41.59
47536;BME280;33278;50.826;9.030;2022-08-07T01:25:32;99512.78;;;20.04;41.03
47536;BME280;33278;50.826;9.030;2022-08-07T01:28:03;99510.97;;;19.99;41.10
47536;BME280;33278;50.826;9.030;2022-08-07T01:30:35;99511.75;;;20.00;40.89
47536;BME280;33278;50.826;9.030;2022-08-07T01:33:06;99509.94;;;19.95;40.75
47536;BME280;33278;50.826;9.030;2022-08-07T01:35:37;99507.59;;;19.88;40.77
47536;BME280;33278;50.826;9.030;2022-08-07T01:38:07;99507.00;;;19.91;40.65
47536;BME280;33278;50.826;9.030;2022-08-07T01:40:39;99503.22;;;19.92;40.66
47536;BME280;33278;50.826;9.030;2022-08-07T01:43:09;99500.00;;;19.90;40.84
47536;BME280;33278;50.826;9.030;2022-08-07T01:45:41;99500.28;;;19.89;40.98
47536;BME280;33278;50.826;9.030;2022-08-07T01:48:12;99500.34;;;19.84;40.90
47536;BME280;33278;50.826;9.030;2022-08-07T01:50:45;99499.41;;;19.93;41.13
47536;BME280;33278;50.826;9.030;2022-08-07T01:53:18;99503.78;;;19.89;40.84
47536;BME280;33278;50.826;9.030;2022-08-07T01:55:54;99508.97;;;19.86;40.67
47536;BME280;33278;50.826;9.030;2022-08-07T01:58:29;99511.41;;;19.82;40.71
47536;BME280;33278;50.826;9.030;2022-08-07T02:01:03;99509.31;;;19.79;40.79
47536;BME280;33278;50.826;9.030;2022-08-07T02:03:42;99507.19;;;19.76;41.58
47536;BME280;33278;50.826;9.030;2022-08-07T02:06:15;99512.03;;;19.79;41.11
47536;BME280;33278;50.826;9.030;2022-08-07T02:08:47;99503.38;;;19.77;41.41
47536;BME280;33278;50.826;9.030;2022-08-07T02:11:18;99508.78;;;19.77;40.89
47536;BME280;33278;50.826;9.030;2022-08-07T02:13:49;99498.84;;;19.72;40.93
47536;BME280;33278;50.826;9.030;2022-08-07T02:16:21;99503.47;;;19.72;40.97
47536;BME280;33278;50.826;9.030;2022-08-07T02:18:54;99504.03;;;19.69;40.86
47536;BME280;33278;50.826;9.030;2022-08-07T02:21:25;99497.84;;;19.68;41.43
47536;BME280;33278;50.826;9.030;2022-08-07T02:23:57;99505.72;;;19.65;40.83
47536;BME280;33278;50.826;9.030;2022-08-07T02:26:28;99505.94;;;19.68;40.83
47536;BME280;33278;50.826;9.030;2022-08-07T02:28:59;99500.59;;;19.63;40.92
47536;BME280;33278;50.826;9.030;2022-08-07T02:31:31;99495.78;;;19.60;40.86
47536;BME280;33278;50.826;9.030;2022-08-07T02:34:04;99491.75;;;19.57;40.93
47536;BME280;33278;50.826;9.030;2022-08-07T02:36:35;99499.13;;;19.52;41.00
47536;BME280;33278;50.826;9.030;2022-08-07T02:39:07;99498.28;;;19.51;41.17
47536;BME280;33278;50.826;9.030;2022-08-07T02:41:38;99495.66;;;19.46;41.25
47536;BME280;33278;50.826;9.030;2022-08-07T02:44:08;99501.13;;;19.41;41.36
47536;BME280;33278;50.826;9.030;2022-08-07T02:46:41;99508.16;;;19.42;41.39
47536;BME280;33278;50.826;9.030;2022-08-07T02:49:12;99501.78;;;19.33;41.55
47536;BME280;33278;50.826;9.030;2022-08-07T02:51:43;99499.84;;;19.33;41.65
47536;BME280;33278;50.826;9.030;2022-08-07T02:54:16;99497.22;;;19.28;41.66
47536;BME280;33278;50.826;9.030;2022-08-07T02:56:47;99498.16;;;19.18;41.92
47536;BME280;33278;50.826;9.030;2022-08-07T02:59:20;99493.53;;;19.19;41.91
47536;BME280;33278;50.826;9.030;2022-08-07T03:01:54;99491.69;;;19.14;42.00
47536;BME280;33278;50.826;9.030;2022-08-07T03:04:25;99486.34;;;19.09;41.95
47536;BME280;33278;50.826;9.030;2022-08-07T03:06:57;99492.06;;;19.07;42.13
47536;BME280;33278;50.826;9.030;2022-08-07T03:09:29;99488.31;;;19.03;42.08
47536;BME280;33278;50.826;9.030;2022-08-07T03:12:01;99488.59;;;19.02;42.29
47536;BME280;33278;50.826;9.030;2022-08-07T03:14:32;99498.06;;;18.99;42.20
47536;BME280;33278;50.826;9.030;2022-08-07T03:17:05;99489.75;;;18.95;42.23
47536;BME280;33278;50.826;9.030;2022-08-07T03:19:36;99493.00;;;18.92;42.35
47536;BME280;33278;50.826;9.030;2022-08-07T03:22:07;99494.34;;;18.90;42.40
47536;BME280;33278;50.826;9.030;2022-08-07T03:24:37;99495.19;;;18.85;42.58
47536;BME280;33278;50.826;9.030;2022-08-07T03:27:08;99492.56;;;18.80;42.67
47536;BME280;33278;50.826;9.030;2022-08-07T03:29:43;99485.03;;;18.77;42.83
47536;BME280;33278;50.826;9.030;2022-08-07T03:32:16;99482.31;;;18.77;42.87
47536;BME280;33278;50.826;9.030;2022-08-07T03:34:49;99487.19;;;18.75;42.95
47536;BME280;33278;50.826;9.030;2022-08-07T03:37:22;99488.31;;;18.69;42.92
47536;BME280;33278;50.826;9.030;2022-08-07T03:39:53;99484.00;;;18.67;42.98
47536;BME280;33278;50.826;9.030;2022-08-07T03:42:24;99467.09;;;18.62;43.09
47536;BME280;33278;50.826;9.030;2022-08-07T03:44:55;99480.00;;;18.65;43.04
47536;BME280;33278;50.826;9.030;2022-08-07T03:47:26;99475.91;;;18.67;42.90
47536;BME280;33278;50.826;9.030;2022-08-07T03:49:57;99482.69;;;18.65;42.95
47536;BME280;33278;50.826;9.030;2022-08-07T03:52:28;99479.75;;;18.61;43.14
47536;BME280;33278;50.826;9.030;2022-08-07T03:55:00;99483.28;;;18.62;43.10
47536;BME280;33278;50.826;9.030;2022-08-07T03:57:31;99478.19;;;18.55;43.02
47536;BME280;33278;50.826;9.030;2022-08-07T04:00:03;99487.84;;;18.61;43.00
47536;BME280;33278;50.826;9.030;2022-08-07T04:02:34;99483.53;;;18.60;42.94
47536;BME280;33278;50.826;9.030;2022-08-07T04:05:05;99481.94;;;18.59;43.17
47536;BME280;33278;50.826;9.030;2022-08-07T04:07:37;99485.75;;;18.53;43.18
47536;BME280;33278;50.826;9.030;2022-08-07T04:10:07;99479.28;;;18.54;43.25
47536;BME280;33278;50.826;9.030;2022-08-07T04:12:38;99482.78;;;18.55;43.10
47536;BME280;33278;50.826;9.030;2022-08-07T04:15:09;99474.44;;;18.51;43.11
47536;BME280;33278;50.826;9.030;2022-08-07T04:17:42;99476.41;;;18.45;43.37
47536;BME280;33278;50.826;9.030;2022-08-07T04:20:13;99479.34;;;18.49;43.48
47536;BME280;33278;50.826;9.030;2022-08-07T04:22:43;99479.59;;;18.47;43.38
47536;BME280;33278;50.826;9.030;2022-08-07T04:25:16;99480.97;;;18.45;43.52
47536;BME280;33278;50.826;9.030;2022-08-07T04:27:47;99474.50;;;18.46;43.54
47536;BME280;33278;50.826;9.030;2022-08-07T04:30:17;99491.75;;;18.45;43.63
47536;BME280;33278;50.826;9.030;2022-08-07T04:32:48;99478.50;;;18.48;43.44
47536;BME280;33278;50.826;9.030;2022-08-07T04:35:19;99482.81;;;18.49;43.44
47536;BME280;33278;50.826;9.030;2022-08-07T04:37:49;99486.06;;;18.51;43.45
47536;BME280;33278;50.826;9.030;2022-08-07T04:40:20;99497.88;;;18.56;43.39
47536;BME280;33278;50.826;9.030;2022-08-07T04:42:50;99498.22;;;18.49;43.66
47536;BME280;33278;50.826;9.030;2022-08-07T04:45:24;99501.94;;;18.53;43.50
47536;BME280;33278;50.826;9.030;2022-08-07T04:48:09;99504.59;;;18.58;43.37
47536;BME280;33278;50.826;9.030;2022-08-07T04:50:50;99508.41;;;18.57;43.47
47536;BME280;33278;50.826;9.030;2022-08-07T04:53:30;99507.09;;;18.49;43.55
47536;BME280;33278;50.826;9.030;2022-08-07T04:59:01;99511.72;;;18.49;43.67
47536;BME280;33278;50.826;9.030;2022-08-07T05:01:41;99507.94;;;18.50;43.93
47536;BME280;33278;50.826;9.030;2022-08-07T05:04:17;99508.69;;;18.56;43.63
47536;BME280;33278;50.826;9.030;2022-08-07T05:07:00;99510.88;;;18.54;43.85
47536;BME280;33278;50.826;9.030;2022-08-07T05:09:52;99514.59;;;18.58;43.79
47536;BME280;33278;50.826;9.030;2022-08-07T05:12:40;99508.53;;;18.71;43.43
47536;BME280;33278;50.826;9.030;2022-08-07T05:15:15;99519.41;;;18.66;43.62
47536;BME280;33278;50.826;9.030;2022-08-07T05:17:52;99520.47;;;18.65;43.60
47536;BME280;33278;50.826;9.030;2022-08-07T05:20:31;99514.75;;;18.72;43.48
47536;BME280;33278;50.826;9.030;2022-08-07T05:23:07;99518.56;;;18.71;43.50
47536;BME280;33278;50.826;9.030;2022-08-07T05:25:40;99515.00;;;18.75;43.71
47536;BME280;33278;50.826;9.030;2022-08-07T05:28:12;99516.63;;;18.76;43.79
47536;BME280;33278;50.826;9.030;2022-08-07T05:30:43;99516.81;;;18.85;43.79
47536;BME280;33278;50.826;9.030;2022-08-07T05:33:15;99514.63;;;18.87;43.52
47536;BME280;33278;50.826;9.030;2022-08-07T05:35:47;99515.66;;;18.96;43.58
47536;BME280;33278;50.826;9.030;2022-08-07T05:38:18;99520.25;;;18.96;43.49
47536;BME280;33278;50.826;9.030;2022-08-07T05:40:51;99529.66;;;18.98;43.58
47536;BME280;33278;50.826;9.030;2022-08-07T05:43:21;99528.53;;;19.05;43.65
47536;BME280;33278;50.826;9.030;2022-08-07T05:45:53;99534.97;;;19.09;43.77
47536;BME280;33278;50.826;9.030;2022-08-07T05:48:24;99534.44;;;19.07;43.57
47536;BME280;33278;50.826;9.030;2022-08-07T05:50:58;99536.47;;;19.20;43.42
47536;BME280;33278;50.826;9.030;2022-08-07T05:53:30;99537.34;;;19.16;43.52
47536;BME280;33278;50.826;9.030;2022-08-07T05:56:01;99530.50;;;19.23;43.45
47536;BME280;33278;50.826;9.030;2022-08-07T05:58:34;99531.94;;;19.16;43.06
47536;BME280;33278;50.826;9.030;2022-08-07T06:01:07;99534.00;;;19.24;43.14
47536;BME280;33278;50.826;9.030;2022-08-07T06:03:40;99543.44;;;19.26;43.38
47536;BME280;33278;50.826;9.030;2022-08-07T06:06:12;99535.69;;;19.20;43.15
47536;BME280;33278;50.826;9.030;2022-08-07T06:08:43;99536.91;;;19.33;42.86
47536;BME280;33278;50.826;9.030;2022-08-07T06:11:15;99552.25;;;19.37;42.91
47536;BME280;33278;50.826;9.030;2022-08-07T06:13:45;99536.84;;;19.38;42.90
47536;BME280;33278;50.826;9.030;2022-08-07T06:16:16;99539.41;;;19.24;43.13
47536;BME280;33278;50.826;9.030;2022-08-07T06:18:49;99550.94;;;19.35;43.05
47536;BME280;33278;50.826;9.030;2022-08-07T06:21:21;99537.06;;;19.41;42.90
47536;BME280;33278;50.826;9.030;2022-08-07T06:23:52;99540.81;;;19.45;42.93
47536;BME280;33278;50.826;9.030;2022-08-07T06:26:22;99539.47;;;19.43;42.98
47536;BME280;33278;50.826;9.030;2022-08-07T06:28:56;99550.72;;;19.50;42.91
47536;BME280;33278;50.826;9.030;2022-08-07T06:31:29;99546.94;;;19.51;42.95
47536;BME280;33278;50.826;9.030;2022-08-07T06:33:59;99549.59;;;19.56;42.71
47536;BME280;33278;50.826;9.030;2022-08-07T06:36:30;99540.75;;;19.51;42.69
47536;BME280;33278;50.826;9.030;2022-08-07T06:39:00;99536.34;;;19.55;42.91
47536;BME280;33278;50.826;9.030;2022-08-07T06:41:38;99544.59;;;19.69;43.45
47536;BME280;33278;50.826;9.030;2022-08-07T06:44:10;99539.16;;;18.22;46.18
47536;BME280;33278;50.826;9.030;2022-08-07T06:46:42;99539.09;;;18.27;45.67
47536;BME280;33278;50.826;9.030;2022-08-07T06:49:12;99539.16;;;18.16;45.68
47536;BME280;33278;50.826;9.030;2022-08-07T06:51:44;99532.50;;;18.03;46.24
47536;BME280;33278;50.826;9.030;2022-08-07T06:54:16;99523.25;;;18.15;45.61
47536;BME280;33278;50.826;9.030;2022-08-07T06:56:48;99533.25;;;18.14;45.73
47536;BME280;33278;50.826;9.030;2022-08-07T06:59:23;99530.41;;;17.95;46.56
47536;BME280;33278;50.826;9.030;2022-08-07T07:01:55;99528.91;;;18.18;45.89
47536;BME280;33278;50.826;9.030;2022-08-07T07:04:28;99527.78;;;18.25;45.43
47536;BME280;33278;50.826;9.030;2022-08-07T07:07:00;99532.75;;;18.47;45.15
47536;BME280;33278;50.826;9.030;2022-08-07T07:09:31;99522.31;;;18.35;45.35
47536;BME280;33278;50.826;9.030;2022-08-07T07:14:59;99528.50;;;18.41;44.84
47536;BME280;33278;50.826;9.030;2022-08-07T07:17:35;99527.91;;;18.44;44.42
47536;BME280;33278;50.826;9.030;2022-08-07T07:20:18;99522.09;;;18.66;44.16
47536;BME280;33278;50.826;9.030;2022-08-07T07:22:49;99517.78;;;18.65;44.02
47536;BME280;33278;50.826;9.030;2022-08-07T07:25:21;99519.09;;;18.67;44.08
47536;BME280;33278;50.826;9.030;2022-08-07T07:28:09;99519.09;;;18.73;43.73
47536;BME280;33278;50.826;9.030;2022-08-07T07:30:46;99530.50;;;18.59;43.29
47536;BME280;33278;50.826;9.030;2022-08-07T07:33:18;99523.22;;;18.60;43.23
47536;BME280;33278;50.826;9.030;2022-08-07T07:35:51;99516.16;;;18.69;43.07
47536;BME280;33278;50.826;9.030;2022-08-07T07:38:23;99520.06;;;18.82;43.41
47536;BME280;33278;50.826;9.030;2022-08-07T07:40:57;99518.31;;;19.02;43.09
47536;BME280;33278;50.826;9.030;2022-08-07T07:43:31;99507.69;;;18.76;43.50
47536;BME280;33278;50.826;9.030;2022-08-07T07:46:02;99514.28;;;18.99;43.33
47536;BME280;33278;50.826;9.030;2022-08-07T07:48:34;99515.06;;;19.00;43.11
47536;BME280;33278;50.826;9.030;2022-08-07T07:51:05;99516.44;;;18.97;43.05
47536;BME280;33278;50.826;9.030;2022-08-07T07:53:39;99510.06;;;18.82;42.79
47536;BME280;33278;50.826;9.030;2022-08-07T07:56:12;99511.53;;;19.04;43.25
47536;BME280;33278;50.826;9.030;2022-08-07T07:58:43;99515.78;;;19.10;42.95
47536;BME280;33278;50.826;9.030;2022-08-07T08:01:14;99509.13;;;19.03;43.09
47536;BME280;33278;50.826;9.030;2022-08-07T08:03:46;99511.47;;;18.80;43.69
47536;BME280;33278;50.826;9.030;2022-08-07T08:06:17;99511.81;;;19.03;43.18
47536;BME280;33278;50.826;9.030;2022-08-07T08:08:49;99504.06;;;19.20;43.37
47536;BME280;33278;50.826;9.030;2022-08-07T08:11:21;99502.22;;;19.16;43.00
47536;BME280;33278;50.826;9.030;2022-08-07T08:13:51;99506.19;;;19.23;42.67
47536;BME280;33278;50.826;9.030;2022-08-07T08:16:26;99507.69;;;19.35;42.58
47536;BME280;33278;50.826;9.030;2022-08-07T08:18:59;99504.34;;;19.43;42.10
47536;BME280;33278;50.826;9.030;2022-08-07T08:21:31;99502.44;;;19.43;41.96
47536;BME280;33278;50.826;9.030;2022-08-07T08:24:21;99489.50;;;19.40;41.99
47536;BME280;33278;50.826;9.030;2022-08-07T08:27:11;99492.97;;;19.46;42.47
47536;BME280;33278;50.826;9.030;2022-08-07T08:29:52;99497.16;;;19.57;42.43
47536;BME280;33278;50.826;9.030;2022-08-07T08:32:28;99487.47;;;19.75;41.88
47536;BME280;33278;50.826;9.030;2022-08-07T08:35:00;99490.78;;;19.91;41.47
47536;BME280;33278;50.826;9.030;2022-08-07T08:37:34;99488.19;;;19.81;40.84
47536;BME280;33278;50.826;9.030;2022-08-07T08:40:09;99480.88;;;19.82;41.42
47536;BME280;33278;50.826;9.030;2022-08-07T08:42:46;99479.78;;;19.83;41.19
47536;BME280;33278;50.826;9.030;2022-08-07T08:45:24;99480.56;;;19.88;41.03
47536;BME280;33278;50.826;9.030;2022-08-07T08:48:36;99485.25;;;20.02;40.59
47536;BME280;33278;50.826;9.030;2022-08-07T08:51:26;99480.31;;;20.04;40.88
47536;BME280;33278;50.826;9.030;2022-08-07T08:54:05;99482.38;;;20.12;40.27
47536;BME280;33278;50.826;9.030;2022-08-07T08:56:43;99479.66;;;20.12;40.19
47536;BME280;33278;50.826;9.030;2022-08-07T08:59:21;99474.31;;;20.26;39.67
47536;BME280;33278;50.826;9.030;2022-08-07T09:02:18;99484.25;;;20.31;39.37
47536;BME280;33278;50.826;9.030;2022-08-07T09:07:56;99470.56;;;20.41;39.36
47536;BME280;33278;50.826;9.030;2022-08-07T09:10:42;99462.19;;;20.56;38.90
47536;BME280;33278;50.826;9.030;2022-08-07T09:13:32;99468.03;;;20.64;38.81
47536;BME280;33278;50.826;9.030;2022-08-07T09:19:06;99462.00;;;20.53;38.59
47536;BME280;33278;50.826;9.030;2022-08-07T09:27:28;99456.25;;;20.74;39.77
47536;BME280;33278;50.826;9.030;2022-08-07T09:30:07;99454.31;;;20.74;40.34
47536;BME280;33278;50.826;9.030;2022-08-07T09:32:45;99458.84;;;20.79;39.87
47536;BME280;33278;50.826;9.030;2022-08-07T09:35:32;99456.97;;;20.79;38.63
47536;BME280;33278;50.826;9.030;2022-08-07T09:46:26;99434.38;;;20.98;37.87
47536;BME280;33278;50.826;9.030;2022-08-07T09:49:34;99433.09;;;20.95;38.77
47536;BME280;33278;50.826;9.030;2022-08-07T09:52:20;99421.47;;;20.95;38.78
47536;BME280;33278;50.826;9.030;2022-08-07T10:04:32;99410.41;;;21.05;38.64
47536;BME280;33278;50.826;9.030;2022-08-07T10:21:39;99382.00;;;21.16;39.53
47536;BME280;33278;50.826;9.030;2022-08-07T10:27:22;99382.78;;;21.17;40.45
47536;BME280;33278;50.826;9.030;2022-08-07T10:33:10;99381.19;;;21.16;40.04
47536;BME280;33278;50.826;9.030;2022-08-07T10:36:03;99375.19;;;21.19;39.10
47536;BME280;33278;50.826;9.030;2022-08-07T10:38:49;99374.38;;;21.18;39.33
47536;BME280;33278;50.826;9.030;2022-08-07T10:41:43;99371.38;;;21.20;38.65
47536;BME280;33278;50.826;9.030;2022-08-07T10:47:04;99371.38;;;21.20;39.22
47536;BME280;33278;50.826;9.030;2022-08-07T10:49:42;99369.44;;;21.21;38.38
47536;BME280;33278;50.826;9.030;2022-08-07T10:52:34;99371.88;;;21.22;39.20
47536;BME280;33278;50.826;9.030;2022-08-07T10:55:14;99373.97;;;21.25;38.77
47536;BME280;33278;50.826;9.030;2022-08-07T10:58:04;99364.84;;;21.21;38.77
47536;BME280;33278;50.826;9.030;2022-08-07T11:01:23;99366.13;;;21.24;39.13
47536;BME280;33278;50.826;9.030;2022-08-07T11:04:00;99363.44;;;21.24;39.25
47536;BME280;33278;50.826;9.030;2022-08-07T11:07:03;99352.59;;;21.24;39.25
47536;BME280;33278;50.826;9.030;2022-08-07T11:09:39;99347.47;;;21.22;39.84
47536;BME280;33278;50.826;9.030;2022-08-07T11:12:16;99350.84;;;21.28;39.68
47536;BME280;33278;50.826;9.030;2022-08-07T11:14:53;99350.84;;;21.28;39.23
47536;BME280;33278;50.826;9.030;2022-08-07T11:17:48;99345.75;;;21.26;39.15
47536;BME280;33278;50.826;9.030;2022-08-07T11:20:23;99342.72;;;21.28;39.24
47536;BME280;33278;50.826;9.030;2022-08-07T11:23:17;99342.72;;;21.28;39.21
47536;BME280;33278;50.826;9.030;2022-08-07T11:26:16;99336.41;;;21.32;38.58
47536;BME280;33278;50.826;9.030;2022-08-07T11:29:06;99336.41;;;21.32;37.71
47536;BME280;33278;50.826;9.030;2022-08-07T11:31:48;99329.56;;;21.35;38.69
47536;BME280;33278;50.826;9.030;2022-08-07T11:34:37;99331.28;;;21.31;38.91
47536;BME280;33278;50.826;9.030;2022-08-07T11:37:14;99331.28;;;21.31;39.46
47536;BME280;33278;50.826;9.030;2022-08-07T11:39:59;99314.72;;;21.32;39.48
47536;BME280;33278;50.826;9.030;2022-08-07T11:45:33;99311.41;;;21.35;38.56
47536;BME280;33278;50.826;9.030;2022-08-07T12:00:03;99308.88;;;21.39;38.84
47536;BME280;33278;50.826;9.030;2022-08-07T12:03:12;99305.84;;;21.41;38.57
47536;BME280;33278;50.826;9.030;2022-08-07T12:05:59;99307.97;;;21.44;38.73
47536;BME280;33278;50.826;9.030;2022-08-07T12:08:51;99308.75;;;21.44;38.63
47536;BME280;33278;50.826;9.030;2022-08-07T12:11:25;99301.25;;;21.41;39.81
47536;BME280;33278;50.826;9.030;2022-08-07T12:14:05;99303.66;;;21.43;38.85
47536;BME280;33278;50.826;9.030;2022-08-07T12:16:57;99300.44;;;21.41;39.33
47536;BME280;33278;50.826;9.030;2022-08-07T12:19:44;99295.00;;;21.41;39.28
47536;BME280;33278;50.826;9.030;2022-08-07T12:28:17;99287.69;;;21.41;39.55
47536;BME280;33278;50.826;9.030;2022-08-07T12:30:52;99288.19;;;21.43;39.68
47536;BME280;33278;50.826;9.030;2022-08-07T12:33:27;99285.66;;;21.47;39.82
47536;BME280;33278;50.826;9.030;2022-08-07T12:35:59;99277.22;;;21.48;39.74
47536;BME280;33278;50.826;9.030;2022-08-07T12:38:30;99273.19;;;21.46;38.88
47536;BME280;33278;50.826;9.030;2022-08-07T12:41:02;99274.53;;;21.48;38.88
47536;BME280;33278;50.826;9.030;2022-08-07T12:43:35;99272.28;;;21.50;39.52
47536;BME280;33278;50.826;9.030;2022-08-07T12:46:12;99271.16;;;21.51;39.38
47536;BME280;33278;50.826;9.030;2022-08-07T12:48:57;99271.81;;;21.48;38.41
47536;BME280;33278;50.826;9.030;2022-08-07T12:51:52;99266.66;;;21.61;38.90
47536;BME280;33278;50.826;9.030;2022-08-07T12:54:31;99274.47;;;21.62;38.61
47536;BME280;33278;50.826;9.030;2022-08-07T12:57:04;99274.81;;;21.70;38.36
47536;BME280;33278;50.826;9.030;2022-08-07T12:59:37;99275.47;;;21.66;38.30
47536;BME280;33278;50.826;9.030;2022-08-07T13:10:37;99268.13;;;21.67;39.59
47536;BME280;33278;50.826;9.030;2022-08-07T13:16:30;99262.59;;;21.72;38.90
47536;BME280;33278;50.826;9.030;2022-08-07T13:21:44;99250.31;;;21.75;39.90
47536;BME280;33278;50.826;9.030;2022-08-07T13:24:21;99254.31;;;21.77;39.48
47536;BME280;33278;50.826;9.030;2022-08-07T13:27:10;99253.19;;;21.78;39.74
47536;BME280;33278;50.826;9.030;2022-08-07T13:29:51;99246.03;;;21.82;39.44
47536;BME280;33278;50.826;9.030;2022-08-07T13:35:36;99237.47;;;21.89;39.30
47536;BME280;33278;50.826;9.030;2022-08-07T13:38:15;99239.84;;;21.91;39.09
47536;BME280;33278;50.826;9.030;2022-08-07T13:41:19;99243.91;;;22.02;38.66
47536;BME280;33278;50.826;9.030;2022-08-07T13:43:52;99239.44;;;22.06;38.44
47536;BME280;33278;50.826;9.030;2022-08-07T13:46:28;99246.13;;;22.00;38.16
47536;BME280;33278;50.826;9.030;2022-08-07T13:49:02;99238.13;;;21.95;39.28
47536;BME280;33278;50.826;9.030;2022-08-07T13:51:34;99239.09;;;21.99;38.30
47536;BME280;33278;50.826;9.030;2022-08-07T13:54:09;99226.03;;;22.01;38.43
47536;BME280;33278;50.826;9.030;2022-08-07T13:56:42;99223.59;;;22.00;38.11
47536;BME280;33278;50.826;9.030;2022-08-07T13:59:19;99222.03;;;21.98;38.51
47536;BME280;33278;50.826;9.030;2022-08-07T14:01:55;99216.94;;;22.06;38.53
47536;BME280;33278;50.826;9.030;2022-08-07T14:04:28;99223.03;;;22.11;39.07
47536;BME280;33278;50.826;9.030;2022-08-07T14:06:59;99221.91;;;22.12;38.52
47536;BME280;33278;50.826;9.030;2022-08-07T14:09:34;99219.84;;;22.09;39.04
47536;BME280;33278;50.826;9.030;2022-08-07T14:12:23;99218.72;;;22.10;38.89
47536;BME280;33278;50.826;9.030;2022-08-07T14:15:00;99220.66;;;22.19;39.21
47536;BME280;33278;50.826;9.030;2022-08-07T14:17:35;99217.47;;;22.17;38.68
47536;BME280;33278;50.826;9.030;2022-08-07T14:20:13;99216.19;;;22.14;39.71
47536;BME280;33278;50.826;9.030;2022-08-07T14:22:51;99209.09;;;22.04;39.63
47536;BME280;33278;50.826;9.030;2022-08-07T14:25:25;99204.94;;;21.98;40.31
47536;BME280;33278;50.826;9.030;2022-08-07T14:27:57;99208.50;;;22.07;39.75
47536;BME280;33278;50.826;9.030;2022-08-07T14:30:34;99211.38;;;22.11;39.72
47536;BME280;33278;50.826;9.030;2022-08-07T14:33:06;99211.06;;;22.12;39.81
47536;BME280;33278;50.826;9.030;2022-08-07T14:35:37;99202.13;;;22.12;39.66
47536;BME280;33278;50.826;9.030;2022-08-07T14:38:10;99202.91;;;22.12;39.09
47536;BME280;33278;50.826;9.030;2022-08-07T14:40:42;99208.03;;;22.14;39.06
47536;BME280;33278;50.826;9.030;2022-08-07T14:43:14;99207.22;;;22.13;39.24
47536;BME280;33278;50.826;9.030;2022-08-07T14:45:51;99195.28;;;22.14;38.20
47536;BME280;33278;50.826;9.030;2022-08-07T14:48:27;99179.94;;;22.19;39.03
47536;BME280;33278;50.826;9.030;2022-08-07T14:51:02;99187.28;;;22.18;38.68
47536;BME280;33278;50.826;9.030;2022-08-07T14:53:40;99189.06;;;22.14;39.44
47536;BME280;33278;50.826;9.030;2022-08-07T14:56:12;99190.47;;;22.11;38.13
47536;BME280;33278;50.826;9.030;2022-08-07T14:58:48;99193.03;;;22.17;39.07
47536;BME280;33278;50.826;9.030;2022-08-07T15:01:26;99192.88;;;22.13;38.78
47536;BME280;33278;50.826;9.030;2022-08-07T15:04:01;99197.38;;;22.18;39.17
47536;BME280;33278;50.826;9.030;2022-08-07T15:06:34;99187.47;;;22.22;39.36
47536;BME280;33278;50.826;9.030;2022-08-07T15:09:13;99183.63;;;22.23;38.25
47536;BME280;33278;50.826;9.030;2022-08-07T15:11:57;99176.16;;;22.28;38.63
47536;BME280;33278;50.826;9.030;2022-08-07T15:14:31;99175.66;;;22.26;38.31
47536;BME280;33278;50.826;9.030;2022-08-07T15:17:10;99174.38;;;22.24;38.95
47536;BME280;33278;50.826;9.030;2022-08-07T15:19:52;99171.03;;;22.27;39.09